sensor_id;sensor_type;location;lat;lon;timestamp;temperature;humidity
5786;DHT22;2919;48.630;9.000;2022-11-11T00:00:22;3.50;99.90
5786;DHT22;2919;48.630;9.000;2022-11-11T00:02:48;3.40;99.90
5786;DHT22;2919;48.630;9.000;2022-11-11T00:05:17;3.50;99.90
5786;DHT22;2919;48.630;9.000;2022-11-11T00:07:42;3.40;99.90
5786;DHT22;2919;48.630;9.000;2022-11-11T00:10:09;3.40;99.90
5786;DHT22;2919;48.630;9.000;2022-11-11T00:12:34;3.30;99.90
5786;DHT22;2919;48.630;9.000;2022-11-11T00:15:00;3.30;99.90
5786;DHT22;2919;48.630;9.000;2022-11-11T00:17:26;3.20;99.90
5786;DHT22;2919;48.630;9.000;2022-11-11T00:20:11;3.30;99.90
5786;DHT22;2919;48.630;9.000;2022-11-11T00:22:55;3.30;99.90
5786;DHT22;2919;48.630;9.000;2022-11-11T00:25:40;3.30;99.90
5786;DHT22;2919;48.630;9.000;2022-11-11T00:28:06;3.30;99.90
5786;DHT22;2919;48.630;9.000;2022-11-11T00:30:31;3.30;99.90
5786;DHT22;2919;48.630;9.000;2022-11-11T00:32:57;3.20;99.90
5786;DHT22;2919;48.630;9.000;2022-11-11T00:35:23;3.20;99.90
5786;DHT22;2919;48.630;9.000;2022-11-11T00:38:12;3.20;99.90
5786;DHT22;2919;48.630;9.000;2022-11-11T00:41:00;3.30;99.90
5786;DHT22;2919;48.630;9.000;2022-11-11T00:43:26;3.30;99.90
5786;DHT22;2919;48.630;9.000;2022-11-11T00:45:52;3.30;99.90
5786;DHT22;2919;48.630;9.000;2022-11-11T00:48:18;3.30;99.90
5786;DHT22;2919;48.630;9.000;2022-11-11T00:51:02;3.30;99.90
5786;DHT22;2919;48.630;9.000;2022-11-11T00:53:29;3.30;99.90
5786;DHT22;2919;48.630;9.000;2022-11-11T00:55:57;3.30;99.90
5786;DHT22;2919;48.630;9.000;2022-11-11T00:58:23;3.20;99.90
5786;DHT22;2919;48.630;9.000;2022-11-11T01:00:49;3.10;99.90
5786;DHT22;2919;48.630;9.000;2022-11-11T01:03:18;3.10;99.90
5786;DHT22;2919;48.630;9.000;2022-11-11T01:05:44;3.00;99.90
5786;DHT22;2919;48.630;9.000;2022-11-11T01:08:09;3.00;99.90
5786;DHT22;2919;48.630;9.000;2022-11-11T01:10:36;3.00;99.90
5786;DHT22;2919;48.630;9.000;2022-11-11T01:13:25;3.00;99.90
5786;DHT22;2919;48.630;9.000;2022-11-11T01:16:01;3.00;99.90
5786;DHT22;2919;48.630;9.000;2022-11-11T01:18:27;3.00;99.90
5786;DHT22;2919;48.630;9.000;2022-11-11T01:20:58;3.10;99.90
5786;DHT22;2919;48.630;9.000;2022-11-11T01:23:24;3.10;99.90
5786;DHT22;2919;48.630;9.000;2022-11-11T01:25:49;3.10;99.90
5786;DHT22;2919;48.630;9.000;2022-11-11T01:28:17;3.00;99.90
5786;DHT22;2919;48.630;9.000;2022-11-11T01:30:42;2.90;99.90
5786;DHT22;2919;48.630;9.000;2022-11-11T01:33:09;2.90;99.90
5786;DHT22;2919;48.630;9.000;2022-11-11T01:35:40;3.00;99.90
5786;DHT22;2919;48.630;9.000;2022-11-11T01:38:06;3.00;99.90
5786;DHT22;2919;48.630;9.000;2022-11-11T01:40:53;3.00;99.90
5786;DHT22;2919;48.630;9.000;2022-11-11T01:43:21;3.00;99.90
5786;DHT22;2919;48.630;9.000;2022-11-11T01:51:41;2.90;99.90
5786;DHT22;2919;48.630;9.000;2022-11-11T01:54:20;2.80;99.90
5786;DHT22;2919;48.630;9.000;2022-11-11T01:56:50;2.80;99.90
5786;DHT22;2919;48.630;9.000;2022-11-11T01:59:18;2.80;99.90
5786;DHT22;2919;48.630;9.000;2022-11-11T02:01:44;2.80;99.90
5786;DHT22;2919;48.630;9.000;2022-11-11T02:04:11;2.70;99.90
5786;DHT22;2919;48.630;9.000;2022-11-11T02:06:59;2.70;99.90
5786;DHT22;2919;48.630;9.000;2022-11-11T02:09:25;2.60;99.90
5786;DHT22;2919;48.630;9.000;2022-11-11T02:11:52;2.70;99.90
5786;DHT22;2919;48.630;9.000;2022-11-11T02:14:49;2.80;99.90
5786;DHT22;2919;48.630;9.000;2022-11-11T02:17:16;2.80;99.90
5786;DHT22;2919;48.630;9.000;2022-11-11T02:24:54;2.90;99.90
5786;DHT22;2919;48.630;9.000;2022-11-11T02:27:22;2.80;99.90
5786;DHT22;2919;48.630;9.000;2022-11-11T02:29:50;2.70;99.90
5786;DHT22;2919;48.630;9.000;2022-11-11T02:32:17;2.70;99.90
5786;DHT22;2919;48.630;9.000;2022-11-11T02:34:43;2.70;99.90
5786;DHT22;2919;48.630;9.000;2022-11-11T02:37:09;2.70;99.90
5786;DHT22;2919;48.630;9.000;2022-11-11T02:39:41;2.80;99.90
5786;DHT22;2919;48.630;9.000;2022-11-11T02:42:08;2.70;99.90
5786;DHT22;2919;48.630;9.000;2022-11-11T02:44:35;2.80;99.90
5786;DHT22;2919;48.630;9.000;2022-11-11T02:47:04;2.70;99.90
5786;DHT22;2919;48.630;9.000;2022-11-11T02:49:30;2.70;99.90
5786;DHT22;2919;48.630;9.000;2022-11-11T02:51:55;2.60;99.90
5786;DHT22;2919;48.630;9.000;2022-11-11T02:54:21;2.60;99.90
5786;DHT22;2919;48.630;9.000;2022-11-11T02:56:46;2.60;99.90
5786;DHT22;2919;48.630;9.000;2022-11-11T02:59:30;2.70;99.90
5786;DHT22;2919;48.630;9.000;2022-11-11T03:01:56;2.70;99.90
5786;DHT22;2919;48.630;9.000;2022-11-11T03:04:21;2.70;99.90
5786;DHT22;2919;48.630;9.000;2022-11-11T03:06:47;2.70;99.90
5786;DHT22;2919;48.630;9.000;2022-11-11T03:09:13;2.70;99.90
5786;DHT22;2919;48.630;9.000;2022-11-11T03:11:39;2.70;99.90
5786;DHT22;2919;48.630;9.000;2022-11-11T03:14:05;2.70;99.90
5786;DHT22;2919;48.630;9.000;2022-11-11T03:16:32;2.70;99.90
5786;DHT22;2919;48.630;9.000;2022-11-11T03:19:17;2.60;99.90
5786;DHT22;2919;48.630;9.000;2022-11-11T03:21:42;2.60;99.90
5786;DHT22;2919;48.630;9.000;2022-11-11T03:24:08;2.60;99.90
5786;DHT22;2919;48.630;9.000;2022-11-11T03:26:34;2.50;99.90
5786;DHT22;2919;48.630;9.000;2022-11-11T03:29:00;2.50;99.90
5786;DHT22;2919;48.630;9.000;2022-11-11T03:31:25;2.50;99.90
5786;DHT22;2919;48.630;9.000;2022-11-11T03:33:51;2.50;99.90
5786;DHT22;2919;48.630;9.000;2022-11-11T03:36:16;2.40;99.90
5786;DHT22;2919;48.630;9.000;2022-11-11T03:38:42;2.30;99.90
5786;DHT22;2919;48.630;9.000;2022-11-11T03:41:08;2.30;99.90
5786;DHT22;2919;48.630;9.000;2022-11-11T03:43:34;2.20;99.90
5786;DHT22;2919;48.630;9.000;2022-11-11T03:46:04;2.30;99.90
5786;DHT22;2919;48.630;9.000;2022-11-11T03:48:33;2.30;99.90
5786;DHT22;2919;48.630;9.000;2022-11-11T03:50:59;2.30;99.90
5786;DHT22;2919;48.630;9.000;2022-11-11T03:53:24;2.20;99.90
5786;DHT22;2919;48.630;9.000;2022-11-11T03:55:50;2.20;99.90
5786;DHT22;2919;48.630;9.000;2022-11-11T03:58:16;2.30;99.90
5786;DHT22;2919;48.630;9.000;2022-11-11T04:00:42;2.40;99.90
5786;DHT22;2919;48.630;9.000;2022-11-11T04:05:55;2.50;99.90
5786;DHT22;2919;48.630;9.000;2022-11-11T04:08:40;2.50;99.90
5786;DHT22;2919;48.630;9.000;2022-11-11T04:11:34;2.50;99.90
5786;DHT22;2919;48.630;9.000;2022-11-11T04:14:05;2.60;99.90
5786;DHT22;2919;48.630;9.000;2022-11-11T04:16:50;2.50;99.90
5786;DHT22;2919;48.630;9.000;2022-11-11T04:19:16;2.50;99.90
5786;DHT22;2919;48.630;9.000;2022-11-11T04:22:00;2.60;99.90
5786;DHT22;2919;48.630;9.000;2022-11-11T04:24:26;2.60;99.90
5786;DHT22;2919;48.630;9.000;2022-11-11T04:27:12;2.70;99.90
5786;DHT22;2919;48.630;9.000;2022-11-11T04:29:39;2.70;99.90
5786;DHT22;2919;48.630;9.000;2022-11-11T04:32:07;2.70;99.90
5786;DHT22;2919;48.630;9.000;2022-11-11T04:34:53;2.80;99.90
5786;DHT22;2919;48.630;9.000;2022-11-11T04:37:20;2.80;99.90
5786;DHT22;2919;48.630;9.000;2022-11-11T04:39:46;2.80;99.90
5786;DHT22;2919;48.630;9.000;2022-11-11T04:42:31;2.70;99.90
5786;DHT22;2919;48.630;9.000;2022-11-11T04:44:57;2.70;99.90
5786;DHT22;2919;48.630;9.000;2022-11-11T04:48:05;2.60;99.90
5786;DHT22;2919;48.630;9.000;2022-11-11T04:50:36;2.60;99.90
5786;DHT22;2919;48.630;9.000;2022-11-11T04:53:04;2.60;99.90
5786;DHT22;2919;48.630;9.000;2022-11-11T04:55:30;2.70;99.90
5786;DHT22;2919;48.630;9.000;2022-11-11T04:58:16;2.70;99.90
5786;DHT22;2919;48.630;9.000;2022-11-11T05:00:41;2.60;99.90
5786;DHT22;2919;48.630;9.000;2022-11-11T05:03:10;2.50;99.90
5786;DHT22;2919;48.630;9.000;2022-11-11T05:05:48;2.40;99.90
5786;DHT22;2919;48.630;9.000;2022-11-11T05:08:38;2.40;99.90
5786;DHT22;2919;48.630;9.000;2022-11-11T05:11:49;2.30;99.90
5786;DHT22;2919;48.630;9.000;2022-11-11T05:14:15;2.20;99.90
5786;DHT22;2919;48.630;9.000;2022-11-11T05:16:59;2.20;99.90
5786;DHT22;2919;48.630;9.000;2022-11-11T05:20:03;2.20;99.90
5786;DHT22;2919;48.630;9.000;2022-11-11T05:22:47;2.20;99.90
5786;DHT22;2919;48.630;9.000;2022-11-11T05:25:13;2.30;99.90
5786;DHT22;2919;48.630;9.000;2022-11-11T05:27:51;2.30;99.90
5786;DHT22;2919;48.630;9.000;2022-11-11T05:30:18;2.40;99.90
5786;DHT22;2919;48.630;9.000;2022-11-11T05:32:44;2.40;99.90
5786;DHT22;2919;48.630;9.000;2022-11-11T05:35:11;2.40;99.90
5786;DHT22;2919;48.630;9.000;2022-11-11T05:37:37;2.40;99.90
5786;DHT22;2919;48.630;9.000;2022-11-11T05:40:04;2.40;99.90
5786;DHT22;2919;48.630;9.000;2022-11-11T05:42:30;2.40;99.90
5786;DHT22;2919;48.630;9.000;2022-11-11T05:44:55;2.30;99.90
5786;DHT22;2919;48.630;9.000;2022-11-11T05:47:21;2.30;99.90
5786;DHT22;2919;48.630;9.000;2022-11-11T05:49:47;2.30;99.90
5786;DHT22;2919;48.630;9.000;2022-11-11T05:52:14;2.30;99.90
5786;DHT22;2919;48.630;9.000;2022-11-11T05:54:40;2.20;99.90
5786;DHT22;2919;48.630;9.000;2022-11-11T05:57:06;2.10;99.90
5786;DHT22;2919;48.630;9.000;2022-11-11T05:59:32;2.10;99.90
5786;DHT22;2919;48.630;9.000;2022-11-11T06:01:58;2.10;99.90
5786;DHT22;2919;48.630;9.000;2022-11-11T06:04:23;2.20;99.90
5786;DHT22;2919;48.630;9.000;2022-11-11T06:06:49;2.20;99.90
5786;DHT22;2919;48.630;9.000;2022-11-11T06:09:15;2.30;99.90
5786;DHT22;2919;48.630;9.000;2022-11-11T06:11:40;2.40;99.90
5786;DHT22;2919;48.630;9.000;2022-11-11T06:14:06;2.30;99.90
5786;DHT22;2919;48.630;9.000;2022-11-11T06:16:32;2.30;99.90
5786;DHT22;2919;48.630;9.000;2022-11-11T06:18:58;2.20;99.90
5786;DHT22;2919;48.630;9.000;2022-11-11T06:21:25;2.20;99.90
5786;DHT22;2919;48.630;9.000;2022-11-11T06:23:50;2.10;99.90
5786;DHT22;2919;48.630;9.000;2022-11-11T06:26:16;2.10;99.90
5786;DHT22;2919;48.630;9.000;2022-11-11T06:28:50;2.10;99.90
5786;DHT22;2919;48.630;9.000;2022-11-11T06:31:18;2.20;99.90
5786;DHT22;2919;48.630;9.000;2022-11-11T06:33:44;2.20;99.90
5786;DHT22;2919;48.630;9.000;2022-11-11T06:36:11;2.30;99.90
5786;DHT22;2919;48.630;9.000;2022-11-11T06:38:38;2.30;99.90
5786;DHT22;2919;48.630;9.000;2022-11-11T06:41:04;2.40;99.90
5786;DHT22;2919;48.630;9.000;2022-11-11T06:43:30;2.40;99.90
5786;DHT22;2919;48.630;9.000;2022-11-11T06:45:56;2.40;99.90
5786;DHT22;2919;48.630;9.000;2022-11-11T06:48:23;2.40;99.90
5786;DHT22;2919;48.630;9.000;2022-11-11T06:50:49;2.40;99.90
5786;DHT22;2919;48.630;9.000;2022-11-11T06:53:17;2.30;99.90
5786;DHT22;2919;48.630;9.000;2022-11-11T06:55:43;2.30;99.90
5786;DHT22;2919;48.630;9.000;2022-11-11T06:58:11;2.30;99.90
5786;DHT22;2919;48.630;9.000;2022-11-11T07:00:38;2.40;99.90
5786;DHT22;2919;48.630;9.000;2022-11-11T07:03:06;2.50;99.90
5786;DHT22;2919;48.630;9.000;2022-11-11T07:05:32;2.50;99.90
5786;DHT22;2919;48.630;9.000;2022-11-11T07:08:07;2.70;99.90
5786;DHT22;2919;48.630;9.000;2022-11-11T07:10:35;2.80;99.90
5786;DHT22;2919;48.630;9.000;2022-11-11T07:13:03;2.90;99.90
5786;DHT22;2919;48.630;9.000;2022-11-11T07:15:29;2.90;99.90
5786;DHT22;2919;48.630;9.000;2022-11-11T07:17:55;3.00;99.90
5786;DHT22;2919;48.630;9.000;2022-11-11T07:20:20;3.00;99.90
5786;DHT22;2919;48.630;9.000;2022-11-11T07:22:46;3.00;99.90
5786;DHT22;2919;48.630;9.000;2022-11-11T07:25:12;3.00;99.90
5786;DHT22;2919;48.630;9.000;2022-11-11T07:27:39;3.00;99.90
5786;DHT22;2919;48.630;9.000;2022-11-11T07:30:05;3.10;99.90
5786;DHT22;2919;48.630;9.000;2022-11-11T07:32:31;3.20;99.90
5786;DHT22;2919;48.630;9.000;2022-11-11T07:34:57;3.30;99.90
5786;DHT22;2919;48.630;9.000;2022-11-11T07:37:22;3.40;99.90
5786;DHT22;2919;48.630;9.000;2022-11-11T07:39:48;3.40;99.90
5786;DHT22;2919;48.630;9.000;2022-11-11T07:42:14;3.50;99.90
5786;DHT22;2919;48.630;9.000;2022-11-11T07:44:40;3.50;99.90
5786;DHT22;2919;48.630;9.000;2022-11-11T07:47:05;3.50;99.90
5786;DHT22;2919;48.630;9.000;2022-11-11T07:49:31;3.60;99.90
5786;DHT22;2919;48.630;9.000;2022-11-11T07:51:57;3.70;99.90
5786;DHT22;2919;48.630;9.000;2022-11-11T07:54:22;3.80;99.90
5786;DHT22;2919;48.630;9.000;2022-11-11T07:56:48;3.90;99.90
5786;DHT22;2919;48.630;9.000;2022-11-11T07:59:13;4.00;99.90
5786;DHT22;2919;48.630;9.000;2022-11-11T08:01:39;4.10;99.90
5786;DHT22;2919;48.630;9.000;2022-11-11T08:04:04;4.10;99.90
5786;DHT22;2919;48.630;9.000;2022-11-11T08:06:30;4.20;99.90
5786;DHT22;2919;48.630;9.000;2022-11-11T08:08:56;4.30;99.90
5786;DHT22;2919;48.630;9.000;2022-11-11T08:11:21;4.50;99.90
5786;DHT22;2919;48.630;9.000;2022-11-11T08:14:05;4.60;99.90
5786;DHT22;2919;48.630;9.000;2022-11-11T08:16:31;4.80;99.90
5786;DHT22;2919;48.630;9.000;2022-11-11T08:18:56;5.00;99.90
5786;DHT22;2919;48.630;9.000;2022-11-11T08:21:23;5.20;99.90
5786;DHT22;2919;48.630;9.000;2022-11-11T08:23:49;5.40;99.90
5786;DHT22;2919;48.630;9.000;2022-11-11T08:26:16;5.70;99.90
5786;DHT22;2919;48.630;9.000;2022-11-11T08:28:43;5.80;99.90
5786;DHT22;2919;48.630;9.000;2022-11-11T08:31:08;5.90;99.90
5786;DHT22;2919;48.630;9.000;2022-11-11T08:33:34;5.90;99.90
5786;DHT22;2919;48.630;9.000;2022-11-11T08:36:00;6.10;99.90
5786;DHT22;2919;48.630;9.000;2022-11-11T08:38:27;6.30;99.90
5786;DHT22;2919;48.630;9.000;2022-11-11T08:40:53;6.50;99.90
5786;DHT22;2919;48.630;9.000;2022-11-11T08:43:19;6.60;99.90
5786;DHT22;2919;48.630;9.000;2022-11-11T08:45:45;6.70;99.90
5786;DHT22;2919;48.630;9.000;2022-11-11T08:48:11;6.80;99.90
5786;DHT22;2919;48.630;9.000;2022-11-11T08:50:38;6.90;99.90
5786;DHT22;2919;48.630;9.000;2022-11-11T08:53:06;6.90;99.90
5786;DHT22;2919;48.630;9.000;2022-11-11T08:55:35;7.00;99.90
5786;DHT22;2919;48.630;9.000;2022-11-11T08:58:04;7.10;99.90
5786;DHT22;2919;48.630;9.000;2022-11-11T09:00:31;7.30;99.90
5786;DHT22;2919;48.630;9.000;2022-11-11T09:03:01;7.40;99.90
5786;DHT22;2919;48.630;9.000;2022-11-11T09:05:27;7.50;99.90
5786;DHT22;2919;48.630;9.000;2022-11-11T09:07:53;7.50;99.90
5786;DHT22;2919;48.630;9.000;2022-11-11T09:10:18;7.40;99.90
5786;DHT22;2919;48.630;9.000;2022-11-11T09:12:44;7.50;99.90
5786;DHT22;2919;48.630;9.000;2022-11-11T09:15:09;7.60;99.90
5786;DHT22;2919;48.630;9.000;2022-11-11T09:17:35;7.50;99.90
5786;DHT22;2919;48.630;9.000;2022-11-11T09:20:01;7.50;99.90
5786;DHT22;2919;48.630;9.000;2022-11-11T09:22:26;7.50;99.90
5786;DHT22;2919;48.630;9.000;2022-11-11T09:24:52;7.50;99.90
5786;DHT22;2919;48.630;9.000;2022-11-11T09:27:17;7.60;99.90
5786;DHT22;2919;48.630;9.000;2022-11-11T09:29:43;7.60;99.90
5786;DHT22;2919;48.630;9.000;2022-11-11T09:32:09;7.70;99.90
5786;DHT22;2919;48.630;9.000;2022-11-11T09:34:34;7.80;99.90
5786;DHT22;2919;48.630;9.000;2022-11-11T09:37:00;7.90;99.90
5786;DHT22;2919;48.630;9.000;2022-11-11T09:39:25;8.00;99.90
5786;DHT22;2919;48.630;9.000;2022-11-11T09:42:00;8.10;99.90
5786;DHT22;2919;48.630;9.000;2022-11-11T09:44:59;8.20;99.90
5786;DHT22;2919;48.630;9.000;2022-11-11T09:50:25;8.50;99.90
5786;DHT22;2919;48.630;9.000;2022-11-11T09:55:42;8.80;99.90
5786;DHT22;2919;48.630;9.000;2022-11-11T09:58:16;9.00;99.90
5786;DHT22;2919;48.630;9.000;2022-11-11T10:00:45;9.10;99.90
5786;DHT22;2919;48.630;9.000;2022-11-11T10:03:17;9.30;99.90
5786;DHT22;2919;48.630;9.000;2022-11-11T10:05:49;9.50;99.90
5786;DHT22;2919;48.630;9.000;2022-11-11T10:08:24;9.70;99.90
5786;DHT22;2919;48.630;9.000;2022-11-11T10:10:52;9.90;99.90
5786;DHT22;2919;48.630;9.000;2022-11-11T10:13:19;10.00;99.90
5786;DHT22;2919;48.630;9.000;2022-11-11T10:21:23;10.10;99.90
5786;DHT22;2919;48.630;9.000;2022-11-11T10:23:53;10.30;99.90
5786;DHT22;2919;48.630;9.000;2022-11-11T10:26:43;10.50;99.90
5786;DHT22;2919;48.630;9.000;2022-11-11T10:29:15;10.60;99.90
5786;DHT22;2919;48.630;9.000;2022-11-11T10:31:42;10.90;99.90
5786;DHT22;2919;48.630;9.000;2022-11-11T10:34:13;11.00;99.90
5786;DHT22;2919;48.630;9.000;2022-11-11T10:36:52;11.00;99.90
5786;DHT22;2919;48.630;9.000;2022-11-11T10:42:13;11.40;99.90
5786;DHT22;2919;48.630;9.000;2022-11-11T10:44:41;11.60;99.90
5786;DHT22;2919;48.630;9.000;2022-11-11T10:50:13;11.50;99.90
5786;DHT22;2919;48.630;9.000;2022-11-11T10:52:57;11.40;99.90
5786;DHT22;2919;48.630;9.000;2022-11-11T10:55:36;11.50;99.90
5786;DHT22;2919;48.630;9.000;2022-11-11T10:58:14;11.60;99.90
5786;DHT22;2919;48.630;9.000;2022-11-11T11:00:42;11.70;99.90
5786;DHT22;2919;48.630;9.000;2022-11-11T11:03:20;12.00;99.90
5786;DHT22;2919;48.630;9.000;2022-11-11T11:08:46;12.30;99.90
5786;DHT22;2919;48.630;9.000;2022-11-11T11:11:24;12.40;99.90
5786;DHT22;2919;48.630;9.000;2022-11-11T11:13:52;12.50;99.90
5786;DHT22;2919;48.630;9.000;2022-11-11T11:16:24;12.50;99.90
5786;DHT22;2919;48.630;9.000;2022-11-11T11:21:59;12.40;99.90
5786;DHT22;2919;48.630;9.000;2022-11-11T11:26:55;12.40;99.90
5786;DHT22;2919;48.630;9.000;2022-11-11T11:29:34;12.50;99.90
5786;DHT22;2919;48.630;9.000;2022-11-11T11:32:20;12.60;99.90
5786;DHT22;2919;48.630;9.000;2022-11-11T11:34:47;12.70;99.90
5786;DHT22;2919;48.630;9.000;2022-11-11T11:37:13;12.80;99.90
5786;DHT22;2919;48.630;9.000;2022-11-11T11:39:39;12.80;99.90
5786;DHT22;2919;48.630;9.000;2022-11-11T11:42:06;12.70;99.90
5786;DHT22;2919;48.630;9.000;2022-11-11T11:44:37;12.60;99.90
5786;DHT22;2919;48.630;9.000;2022-11-11T11:49:50;12.60;99.90
5786;DHT22;2919;48.630;9.000;2022-11-11T11:55:12;12.40;99.90
5786;DHT22;2919;48.630;9.000;2022-11-11T11:57:45;12.40;99.90
5786;DHT22;2919;48.630;9.000;2022-11-11T12:00:22;12.40;99.90
5786;DHT22;2919;48.630;9.000;2022-11-11T12:05:44;12.40;99.90
5786;DHT22;2919;48.630;9.000;2022-11-11T12:11:04;12.40;99.90
5786;DHT22;2919;48.630;9.000;2022-11-11T12:13:49;12.50;99.90
5786;DHT22;2919;48.630;9.000;2022-11-11T12:16:39;12.50;99.90
5786;DHT22;2919;48.630;9.000;2022-11-11T12:22:32;12.60;99.90
5786;DHT22;2919;48.630;9.000;2022-11-11T12:25:17;12.70;99.90
5786;DHT22;2919;48.630;9.000;2022-11-11T12:27:51;12.80;99.90
5786;DHT22;2919;48.630;9.000;2022-11-11T12:30:21;12.90;99.90
5786;DHT22;2919;48.630;9.000;2022-11-11T12:56:31;13.30;99.90
5786;DHT22;2919;48.630;9.000;2022-11-11T12:59:24;13.50;99.90
5786;DHT22;2919;48.630;9.000;2022-11-11T13:02:19;13.50;99.90
5786;DHT22;2919;48.630;9.000;2022-11-11T13:13:46;13.40;99.90
5786;DHT22;2919;48.630;9.000;2022-11-11T13:16:15;13.30;99.90
5786;DHT22;2919;48.630;9.000;2022-11-11T13:18:50;13.30;99.90
5786;DHT22;2919;48.630;9.000;2022-11-11T13:21:25;13.20;99.90
5786;DHT22;2919;48.630;9.000;2022-11-11T13:23:53;13.20;99.90
5786;DHT22;2919;48.630;9.000;2022-11-11T13:26:45;13.30;99.90
5786;DHT22;2919;48.630;9.000;2022-11-11T13:32:16;13.30;99.90
5786;DHT22;2919;48.630;9.000;2022-11-11T13:34:45;13.20;99.90
5786;DHT22;2919;48.630;9.000;2022-11-11T13:39:50;13.10;99.90
5786;DHT22;2919;48.630;9.000;2022-11-11T13:42:26;13.10;99.90
5786;DHT22;2919;48.630;9.000;2022-11-11T13:44:55;13.10;99.90
5786;DHT22;2919;48.630;9.000;2022-11-11T13:47:32;13.10;99.90
5786;DHT22;2919;48.630;9.000;2022-11-11T13:52:33;13.10;99.90
5786;DHT22;2919;48.630;9.000;2022-11-11T13:55:02;13.10;99.90
5786;DHT22;2919;48.630;9.000;2022-11-11T13:57:31;13.10;99.90
5786;DHT22;2919;48.630;9.000;2022-11-11T14:15:44;13.10;99.90
5786;DHT22;2919;48.630;9.000;2022-11-11T14:20:46;13.10;99.90
5786;DHT22;2919;48.630;9.000;2022-11-11T14:23:41;13.10;99.90
5786;DHT22;2919;48.630;9.000;2022-11-11T14:28:55;13.00;99.90
5786;DHT22;2919;48.630;9.000;2022-11-11T14:39:51;12.80;99.90
5786;DHT22;2919;48.630;9.000;2022-11-11T14:44:58;12.70;99.90
5786;DHT22;2919;48.630;9.000;2022-11-11T14:47:38;12.70;99.90
5786;DHT22;2919;48.630;9.000;2022-11-11T14:52:53;12.50;99.90
5786;DHT22;2919;48.630;9.000;2022-11-11T14:57:58;12.40;99.90
5786;DHT22;2919;48.630;9.000;2022-11-11T15:00:31;12.30;99.90
5786;DHT22;2919;48.630;9.000;2022-11-11T15:05:49;12.20;99.90
5786;DHT22;2919;48.630;9.000;2022-11-11T15:08:21;12.10;99.90
5786;DHT22;2919;48.630;9.000;2022-11-11T15:24:53;11.10;99.90
5786;DHT22;2919;48.630;9.000;2022-11-11T15:27:44;10.90;99.90
5786;DHT22;2919;48.630;9.000;2022-11-11T15:30:15;10.70;99.90
5786;DHT22;2919;48.630;9.000;2022-11-11T15:32:59;10.60;99.90
5786;DHT22;2919;48.630;9.000;2022-11-11T15:38:15;10.30;99.90
5786;DHT22;2919;48.630;9.000;2022-11-11T15:40:46;10.20;99.90
5786;DHT22;2919;48.630;9.000;2022-11-11T15:43:18;10.10;99.90
5786;DHT22;2919;48.630;9.000;2022-11-11T15:45:45;10.00;99.90
5786;DHT22;2919;48.630;9.000;2022-11-11T15:48:26;9.90;99.90
5786;DHT22;2919;48.630;9.000;2022-11-11T15:50:52;9.80;99.90
5786;DHT22;2919;48.630;9.000;2022-11-11T15:53:26;9.70;99.90
5786;DHT22;2919;48.630;9.000;2022-11-11T15:55:56;9.60;99.90
5786;DHT22;2919;48.630;9.000;2022-11-11T15:58:27;9.50;99.90
5786;DHT22;2919;48.630;9.000;2022-11-11T16:00:54;9.40;99.90
5786;DHT22;2919;48.630;9.000;2022-11-11T16:03:40;9.30;99.90
5786;DHT22;2919;48.630;9.000;2022-11-11T16:06:11;9.20;99.90
5786;DHT22;2919;48.630;9.000;2022-11-11T16:08:42;9.10;99.90
5786;DHT22;2919;48.630;9.000;2022-11-11T16:11:12;9.00;99.90
5786;DHT22;2919;48.630;9.000;2022-11-11T16:13:43;8.90;99.90
5786;DHT22;2919;48.630;9.000;2022-11-11T16:16:15;8.80;99.90
5786;DHT22;2919;48.630;9.000;2022-11-11T16:18:47;8.70;99.90
5786;DHT22;2919;48.630;9.000;2022-11-11T16:21:41;8.70;99.90
5786;DHT22;2919;48.630;9.000;2022-11-11T16:24:20;8.60;99.90
5786;DHT22;2919;48.630;9.000;2022-11-11T16:26:46;8.50;99.90
5786;DHT22;2919;48.630;9.000;2022-11-11T16:29:14;8.40;99.90
5786;DHT22;2919;48.630;9.000;2022-11-11T16:31:42;8.40;99.90
5786;DHT22;2919;48.630;9.000;2022-11-11T16:37:06;8.20;99.90
5786;DHT22;2919;48.630;9.000;2022-11-11T16:39:32;8.20;99.90
5786;DHT22;2919;48.630;9.000;2022-11-11T16:42:00;8.10;99.90
5786;DHT22;2919;48.630;9.000;2022-11-11T16:44:55;8.00;99.90
5786;DHT22;2919;48.630;9.000;2022-11-11T16:52:46;7.80;99.90
5786;DHT22;2919;48.630;9.000;2022-11-11T16:55:29;7.80;99.90
5786;DHT22;2919;48.630;9.000;2022-11-11T16:58:19;7.70;99.90
5786;DHT22;2919;48.630;9.000;2022-11-11T17:00:46;7.70;99.90
5786;DHT22;2919;48.630;9.000;2022-11-11T17:03:18;7.60;99.90
5786;DHT22;2919;48.630;9.000;2022-11-11T17:05:49;7.50;99.90
5786;DHT22;2919;48.630;9.000;2022-11-11T17:10:56;7.40;99.90
5786;DHT22;2919;48.630;9.000;2022-11-11T17:13:22;7.30;99.90
5786;DHT22;2919;48.630;9.000;2022-11-11T17:15:49;7.30;99.90
5786;DHT22;2919;48.630;9.000;2022-11-11T17:18:15;7.30;99.90
5786;DHT22;2919;48.630;9.000;2022-11-11T17:20:41;7.30;99.90
5786;DHT22;2919;48.630;9.000;2022-11-11T17:23:07;7.20;99.90
5786;DHT22;2919;48.630;9.000;2022-11-11T17:25:33;7.10;99.90
5786;DHT22;2919;48.630;9.000;2022-11-11T17:27:59;7.10;99.90
5786;DHT22;2919;48.630;9.000;2022-11-11T17:30:24;7.10;99.90
5786;DHT22;2919;48.630;9.000;2022-11-11T17:32:50;7.00;99.90
5786;DHT22;2919;48.630;9.000;2022-11-11T17:35:16;7.00;99.90
5786;DHT22;2919;48.630;9.000;2022-11-11T17:37:41;7.00;99.90
5786;DHT22;2919;48.630;9.000;2022-11-11T17:40:09;6.90;99.90
5786;DHT22;2919;48.630;9.000;2022-11-11T17:42:35;6.80;99.90
5786;DHT22;2919;48.630;9.000;2022-11-11T17:45:02;6.70;99.90
5786;DHT22;2919;48.630;9.000;2022-11-11T17:47:27;6.70;99.90
5786;DHT22;2919;48.630;9.000;2022-11-11T17:49:53;6.60;99.90
5786;DHT22;2919;48.630;9.000;2022-11-11T17:52:18;6.60;99.90
5786;DHT22;2919;48.630;9.000;2022-11-11T17:54:44;6.50;99.90
5786;DHT22;2919;48.630;9.000;2022-11-11T17:57:10;6.50;99.90
5786;DHT22;2919;48.630;9.000;2022-11-11T17:59:35;6.40;99.90
5786;DHT22;2919;48.630;9.000;2022-11-11T18:02:01;6.40;99.90
5786;DHT22;2919;48.630;9.000;2022-11-11T18:04:27;6.30;99.90
5786;DHT22;2919;48.630;9.000;2022-11-11T18:06:53;6.30;99.90
5786;DHT22;2919;48.630;9.000;2022-11-11T18:09:19;6.30;99.90
5786;DHT22;2919;48.630;9.000;2022-11-11T18:11:44;6.20;99.90
5786;DHT22;2919;48.630;9.000;2022-11-11T18:14:10;6.10;99.90
5786;DHT22;2919;48.630;9.000;2022-11-11T18:16:36;6.00;99.90
5786;DHT22;2919;48.630;9.000;2022-11-11T18:19:03;6.00;99.90
5786;DHT22;2919;48.630;9.000;2022-11-11T18:21:30;6.00;99.90
5786;DHT22;2919;48.630;9.000;2022-11-11T18:23:56;6.00;99.90
5786;DHT22;2919;48.630;9.000;2022-11-11T18:26:23;6.00;99.90
5786;DHT22;2919;48.630;9.000;2022-11-11T18:28:49;5.90;99.90
5786;DHT22;2919;48.630;9.000;2022-11-11T18:31:15;5.90;99.90
5786;DHT22;2919;48.630;9.000;2022-11-11T18:33:41;5.90;99.90
5786;DHT22;2919;48.630;9.000;2022-11-11T18:36:18;5.90;99.90
5786;DHT22;2919;48.630;9.000;2022-11-11T18:38:45;5.80;99.90
5786;DHT22;2919;48.630;9.000;2022-11-11T18:41:15;5.70;99.90
5786;DHT22;2919;48.630;9.000;2022-11-11T18:43:44;5.70;99.90
5786;DHT22;2919;48.630;9.000;2022-11-11T18:48:40;5.60;99.90
5786;DHT22;2919;48.630;9.000;2022-11-11T18:51:07;5.60;99.90
5786;DHT22;2919;48.630;9.000;2022-11-11T18:53:34;5.60;99.90
5786;DHT22;2919;48.630;9.000;2022-11-11T18:56:10;5.60;99.90
5786;DHT22;2919;48.630;9.000;2022-11-11T18:58:36;5.50;99.90
5786;DHT22;2919;48.630;9.000;2022-11-11T19:03:31;5.40;99.90
5786;DHT22;2919;48.630;9.000;2022-11-11T19:05:59;5.40;99.90
5786;DHT22;2919;48.630;9.000;2022-11-11T19:08:27;5.40;99.90
5786;DHT22;2919;48.630;9.000;2022-11-11T19:10:53;5.30;99.90
5786;DHT22;2919;48.630;9.000;2022-11-11T19:13:18;5.40;99.90
5786;DHT22;2919;48.630;9.000;2022-11-11T19:15:44;5.40;99.90
5786;DHT22;2919;48.630;9.000;2022-11-11T19:18:09;5.50;99.90
5786;DHT22;2919;48.630;9.000;2022-11-11T19:20:36;5.40;99.90